sensor_id;sensor_type;location;lat;lon;timestamp;temperature;humidity
68098;DHT22;54886;47.036;15.466;2023-03-21T00:01:11;8.37;68.55
68098;DHT22;54886;47.036;15.466;2023-03-21T00:03:37;8.34;68.53
68098;DHT22;54886;47.036;15.466;2023-03-21T00:06:08;8.42;68.33
68098;DHT22;54886;47.036;15.466;2023-03-21T00:08:34;8.45;68.88
68098;DHT22;54886;47.036;15.466;2023-03-21T00:11:01;8.46;68.67
68098;DHT22;54886;47.036;15.466;2023-03-21T00:13:28;8.44;68.50
68098;DHT22;54886;47.036;15.466;2023-03-21T00:15:57;8.42;68.84
68098;DHT22;54886;47.036;15.466;2023-03-21T00:18:27;8.45;69.40
68098;DHT22;54886;47.036;15.466;2023-03-21T00:20:57;8.40;69.43
68098;DHT22;54886;47.036;15.466;2023-03-21T00:23:27;8.34;69.41
68098;DHT22;54886;47.036;15.466;2023-03-21T00:25:53;8.35;69.43
68098;DHT22;54886;47.036;15.466;2023-03-21T00:28:19;8.32;69.31
68098;DHT22;54886;47.036;15.466;2023-03-21T00:30:45;8.31;69.80
68098;DHT22;54886;47.036;15.466;2023-03-21T00:33:10;8.40;69.68
68098;DHT22;54886;47.036;15.466;2023-03-21T00:35:38;8.40;69.66
68098;DHT22;54886;47.036;15.466;2023-03-21T00:38:04;8.41;69.52
68098;DHT22;54886;47.036;15.466;2023-03-21T00:40:29;8.41;69.64
68098;DHT22;54886;47.036;15.466;2023-03-21T00:42:55;8.32;70.15
68098;DHT22;54886;47.036;15.466;2023-03-21T00:45:20;8.35;69.74
68098;DHT22;54886;47.036;15.466;2023-03-21T00:47:46;8.32;70.15
68098;DHT22;54886;47.036;15.466;2023-03-21T00:50:12;8.35;69.88
68098;DHT22;54886;47.036;15.466;2023-03-21T00:52:37;8.27;70.66
68098;DHT22;54886;47.036;15.466;2023-03-21T00:55:04;8.32;70.09
68098;DHT22;54886;47.036;15.466;2023-03-21T00:57:30;8.40;69.76
68098;DHT22;54886;47.036;15.466;2023-03-21T00:59:55;8.41;69.90
68098;DHT22;54886;47.036;15.466;2023-03-21T01:02:23;8.44;70.01
68098;DHT22;54886;47.036;15.466;2023-03-21T01:04:54;8.45;70.16
68098;DHT22;54886;47.036;15.466;2023-03-21T01:07:20;8.48;69.82
68098;DHT22;54886;47.036;15.466;2023-03-21T01:09:46;8.44;70.72
68098;DHT22;54886;47.036;15.466;2023-03-21T01:12:12;8.44;70.33
68098;DHT22;54886;47.036;15.466;2023-03-21T01:14:37;8.42;70.84
68098;DHT22;54886;47.036;15.466;2023-03-21T01:17:03;8.45;70.26
68098;DHT22;54886;47.036;15.466;2023-03-21T01:19:29;8.40;71.22
68098;DHT22;54886;47.036;15.466;2023-03-21T01:21:55;8.42;69.93
68098;DHT22;54886;47.036;15.466;2023-03-21T01:24:21;8.42;70.37
68098;DHT22;54886;47.036;15.466;2023-03-21T01:26:47;8.45;70.29
68098;DHT22;54886;47.036;15.466;2023-03-21T01:29:12;8.46;70.19
68098;DHT22;54886;47.036;15.466;2023-03-21T01:31:38;8.51;69.99
68098;DHT22;54886;47.036;15.466;2023-03-21T01:34:03;8.46;69.89
68098;DHT22;54886;47.036;15.466;2023-03-21T01:36:29;8.49;70.24
68098;DHT22;54886;47.036;15.466;2023-03-21T01:38:54;8.49;69.98
68098;DHT22;54886;47.036;15.466;2023-03-21T01:41:31;8.49;71.03
68098;DHT22;54886;47.036;15.466;2023-03-21T01:43:57;8.49;70.15
68098;DHT22;54886;47.036;15.466;2023-03-21T01:46:44;8.46;70.48
68098;DHT22;54886;47.036;15.466;2023-03-21T01:49:21;8.45;70.70
68098;DHT22;54886;47.036;15.466;2023-03-21T01:51:53;8.38;71.57
68098;DHT22;54886;47.036;15.466;2023-03-21T01:54:27;8.38;70.75
68098;DHT22;54886;47.036;15.466;2023-03-21T01:56:55;8.37;71.00
68098;DHT22;54886;47.036;15.466;2023-03-21T01:59:41;8.40;70.65
68098;DHT22;54886;47.036;15.466;2023-03-21T02:02:11;8.38;70.89
68098;DHT22;54886;47.036;15.466;2023-03-21T02:04:39;8.35;71.08
68098;DHT22;54886;47.036;15.466;2023-03-21T02:07:08;8.38;70.69
68098;DHT22;54886;47.036;15.466;2023-03-21T02:09:37;8.41;71.66
68098;DHT22;54886;47.036;15.466;2023-03-21T02:12:04;8.30;71.93
68098;DHT22;54886;47.036;15.466;2023-03-21T02:14:32;8.35;71.26
68098;DHT22;54886;47.036;15.466;2023-03-21T02:20:00;8.41;71.01
68098;DHT22;54886;47.036;15.466;2023-03-21T02:25:53;8.40;71.25
68098;DHT22;54886;47.036;15.466;2023-03-21T02:31:22;8.44;69.87
68098;DHT22;54886;47.036;15.466;2023-03-21T02:39:52;8.27;70.66
68098;DHT22;54886;47.036;15.466;2023-03-21T02:44:40;8.17;71.22
68098;DHT22;54886;47.036;15.466;2023-03-21T02:47:13;8.18;70.32
68098;DHT22;54886;47.036;15.466;2023-03-21T02:49:59;8.10;70.69
68098;DHT22;54886;47.036;15.466;2023-03-21T02:52:31;8.08;70.25
68098;DHT22;54886;47.036;15.466;2023-03-21T02:54:59;8.10;70.08
68098;DHT22;54886;47.036;15.466;2023-03-21T02:57:31;8.01;71.07
68098;DHT22;54886;47.036;15.466;2023-03-21T02:59:56;7.93;70.59
68098;DHT22;54886;47.036;15.466;2023-03-21T03:02:26;7.89;70.76
68098;DHT22;54886;47.036;15.466;2023-03-21T03:04:52;7.89;69.92
68098;DHT22;54886;47.036;15.466;2023-03-21T03:10:10;7.80;70.80
68098;DHT22;54886;47.036;15.466;2023-03-21T03:13:05;7.77;71.03
68098;DHT22;54886;47.036;15.466;2023-03-21T03:15:40;7.76;70.50
68098;DHT22;54886;47.036;15.466;2023-03-21T03:18:25;7.77;70.16
68098;DHT22;54886;47.036;15.466;2023-03-21T03:24:06;7.69;70.98
68098;DHT22;54886;47.036;15.466;2023-03-21T03:29:03;7.63;70.96
68098;DHT22;54886;47.036;15.466;2023-03-21T03:31:32;7.63;70.65
68098;DHT22;54886;47.036;15.466;2023-03-21T03:34:04;7.63;70.95
68098;DHT22;54886;47.036;15.466;2023-03-21T03:36:35;7.58;71.46
68098;DHT22;54886;47.036;15.466;2023-03-21T03:39:05;7.61;71.16
68098;DHT22;54886;47.036;15.466;2023-03-21T03:41:37;7.58;71.60
68098;DHT22;54886;47.036;15.466;2023-03-21T03:44:05;7.54;71.98
68098;DHT22;54886;47.036;15.466;2023-03-21T03:46:53;7.51;71.38
68098;DHT22;54886;47.036;15.466;2023-03-21T03:49:23;7.45;72.75
68098;DHT22;54886;47.036;15.466;2023-03-21T03:54:41;7.51;71.84
68098;DHT22;54886;47.036;15.466;2023-03-21T03:57:08;7.52;71.51
68098;DHT22;54886;47.036;15.466;2023-03-21T03:59:38;7.47;71.51
68098;DHT22;54886;47.036;15.466;2023-03-21T04:02:04;7.47;71.39
68098;DHT22;54886;47.036;15.466;2023-03-21T04:04:30;7.44;71.12
68098;DHT22;54886;47.036;15.466;2023-03-21T04:06:56;7.44;71.04
68098;DHT22;54886;47.036;15.466;2023-03-21T04:09:22;7.42;70.58
68098;DHT22;54886;47.036;15.466;2023-03-21T04:11:48;7.40;70.95
68098;DHT22;54886;47.036;15.466;2023-03-21T04:14:14;7.34;70.92
68098;DHT22;54886;47.036;15.466;2023-03-21T04:16:39;7.30;71.29
68098;DHT22;54886;47.036;15.466;2023-03-21T04:19:04;7.25;71.96
68098;DHT22;54886;47.036;15.466;2023-03-21T04:21:30;7.18;72.18
68098;DHT22;54886;47.036;15.466;2023-03-21T04:23:55;7.13;71.77
68098;DHT22;54886;47.036;15.466;2023-03-21T04:26:21;7.10;72.28
68098;DHT22;54886;47.036;15.466;2023-03-21T04:28:48;7.00;72.22
68098;DHT22;54886;47.036;15.466;2023-03-21T04:31:14;7.03;71.64
68098;DHT22;54886;47.036;15.466;2023-03-21T04:33:41;6.97;71.44
68098;DHT22;54886;47.036;15.466;2023-03-21T04:36:07;6.99;71.07
68098;DHT22;54886;47.036;15.466;2023-03-21T04:38:34;7.01;71.31
68098;DHT22;54886;47.036;15.466;2023-03-21T04:40:59;6.94;71.24
68098;DHT22;54886;47.036;15.466;2023-03-21T04:43:25;6.87;72.50
68098;DHT22;54886;47.036;15.466;2023-03-21T04:45:52;6.89;71.21
68098;DHT22;54886;47.036;15.466;2023-03-21T04:48:18;6.68;73.07
68098;DHT22;54886;47.036;15.466;2023-03-21T04:50:45;6.69;71.66
68098;DHT22;54886;47.036;15.466;2023-03-21T04:53:11;6.75;71.57
68098;DHT22;54886;47.036;15.466;2023-03-21T04:55:36;6.73;71.54
68098;DHT22;54886;47.036;15.466;2023-03-21T04:58:03;6.72;71.35
68098;DHT22;54886;47.036;15.466;2023-03-21T05:00:29;6.71;71.36
68098;DHT22;54886;47.036;15.466;2023-03-21T05:02:54;6.66;71.37
68098;DHT22;54886;47.036;15.466;2023-03-21T05:05:22;6.55;71.39
68098;DHT22;54886;47.036;15.466;2023-03-21T05:07:47;6.51;71.65
68098;DHT22;54886;47.036;15.466;2023-03-21T05:10:12;6.53;71.38
68098;DHT22;54886;47.036;15.466;2023-03-21T05:12:38;6.49;71.40
68098;DHT22;54886;47.036;15.466;2023-03-21T05:15:04;6.49;71.18
68098;DHT22;54886;47.036;15.466;2023-03-21T05:17:29;6.42;71.73
68098;DHT22;54886;47.036;15.466;2023-03-21T05:19:55;6.34;71.89
68098;DHT22;54886;47.036;15.466;2023-03-21T05:22:21;6.34;71.92
68098;DHT22;54886;47.036;15.466;2023-03-21T05:24:49;6.32;71.96
68098;DHT22;54886;47.036;15.466;2023-03-21T05:27:18;6.28;72.45
68098;DHT22;54886;47.036;15.466;2023-03-21T05:30:15;6.25;72.19
68098;DHT22;54886;47.036;15.466;2023-03-21T05:32:41;6.30;71.68
68098;DHT22;54886;47.036;15.466;2023-03-21T05:35:06;6.31;72.02
68098;DHT22;54886;47.036;15.466;2023-03-21T05:37:32;6.34;72.03
68098;DHT22;54886;47.036;15.466;2023-03-21T05:39:57;6.28;73.33
68098;DHT22;54886;47.036;15.466;2023-03-21T05:42:23;6.28;72.49
68098;DHT22;54886;47.036;15.466;2023-03-21T05:44:49;6.30;72.29
68098;DHT22;54886;47.036;15.466;2023-03-21T05:47:16;6.32;72.12
68098;DHT22;54886;47.036;15.466;2023-03-21T05:49:42;6.27;72.32
68098;DHT22;54886;47.036;15.466;2023-03-21T05:52:07;6.24;73.21
68098;DHT22;54886;47.036;15.466;2023-03-21T05:54:33;6.24;72.70
68098;DHT22;54886;47.036;15.466;2023-03-21T05:56:59;6.25;72.89
68098;DHT22;54886;47.036;15.466;2023-03-21T05:59:25;6.24;73.42
68098;DHT22;54886;47.036;15.466;2023-03-21T06:01:50;6.31;72.61
68098;DHT22;54886;47.036;15.466;2023-03-21T06:04:16;6.31;73.48
68098;DHT22;54886;47.036;15.466;2023-03-21T06:06:41;6.25;73.97
68098;DHT22;54886;47.036;15.466;2023-03-21T06:09:07;6.30;73.37
68098;DHT22;54886;47.036;15.466;2023-03-21T06:11:35;6.30;73.15
68098;DHT22;54886;47.036;15.466;2023-03-21T06:14:01;6.34;72.67
68098;DHT22;54886;47.036;15.466;2023-03-21T06:16:26;6.37;72.49
68098;DHT22;54886;47.036;15.466;2023-03-21T06:18:53;6.37;74.17
68098;DHT22;54886;47.036;15.466;2023-03-21T06:21:19;6.37;73.34
68098;DHT22;54886;47.036;15.466;2023-03-21T06:23:44;6.38;74.12
68098;DHT22;54886;47.036;15.466;2023-03-21T06:26:11;6.44;72.30
68098;DHT22;54886;47.036;15.466;2023-03-21T06:28:37;6.53;73.08
68098;DHT22;54886;47.036;15.466;2023-03-21T06:31:03;6.58;74.58
68098;DHT22;54886;47.036;15.466;2023-03-21T06:33:28;6.62;74.67
68098;DHT22;54886;47.036;15.466;2023-03-21T06:35:56;6.72;74.80
68098;DHT22;54886;47.036;15.466;2023-03-21T06:38:22;6.80;74.49
68098;DHT22;54886;47.036;15.466;2023-03-21T06:40:48;6.85;73.91
68098;DHT22;54886;47.036;15.466;2023-03-21T06:43:14;6.90;74.21
68098;DHT22;54886;47.036;15.466;2023-03-21T06:45:40;7.00;74.09
68098;DHT22;54886;47.036;15.466;2023-03-21T06:48:06;7.05;72.64
68098;DHT22;54886;47.036;15.466;2023-03-21T06:50:31;7.18;73.74
68098;DHT22;54886;47.036;15.466;2023-03-21T06:52:56;7.28;73.11
68098;DHT22;54886;47.036;15.466;2023-03-21T06:55:24;7.34;72.99
68098;DHT22;54886;47.036;15.466;2023-03-21T06:57:53;7.45;72.64
68098;DHT22;54886;47.036;15.466;2023-03-21T07:00:20;7.55;73.05
68098;DHT22;54886;47.036;15.466;2023-03-21T07:02:46;7.66;72.92
68098;DHT22;54886;47.036;15.466;2023-03-21T07:05:11;7.72;72.05
68098;DHT22;54886;47.036;15.466;2023-03-21T07:07:37;7.73;72.81
68098;DHT22;54886;47.036;15.466;2023-03-21T07:10:03;7.76;71.08
68098;DHT22;54886;47.036;15.466;2023-03-21T07:12:29;7.86;72.33
68098;DHT22;54886;47.036;15.466;2023-03-21T07:14:58;7.90;72.38
68098;DHT22;54886;47.036;15.466;2023-03-21T07:17:24;7.97;72.29
68098;DHT22;54886;47.036;15.466;2023-03-21T07:19:49;8.05;72.61
68098;DHT22;54886;47.036;15.466;2023-03-21T07:22:14;8.13;71.67
68098;DHT22;54886;47.036;15.466;2023-03-21T07:24:40;8.20;71.54
68098;DHT22;54886;47.036;15.466;2023-03-21T07:27:06;8.24;70.65
68098;DHT22;54886;47.036;15.466;2023-03-21T07:29:31;8.31;69.43
68098;DHT22;54886;47.036;15.466;2023-03-21T07:31:57;8.40;69.51
68098;DHT22;54886;47.036;15.466;2023-03-21T07:34:22;8.44;70.56
68098;DHT22;54886;47.036;15.466;2023-03-21T07:36:47;8.53;70.28
68098;DHT22;54886;47.036;15.466;2023-03-21T07:39:13;8.58;69.52
68098;DHT22;54886;47.036;15.466;2023-03-21T07:41:38;8.66;69.35
68098;DHT22;54886;47.036;15.466;2023-03-21T07:44:03;8.77;68.76
68098;DHT22;54886;47.036;15.466;2023-03-21T07:46:29;8.83;69.36
68098;DHT22;54886;47.036;15.466;2023-03-21T07:48:54;8.99;69.19
68098;DHT22;54886;47.036;15.466;2023-03-21T07:51:20;9.04;69.12
68098;DHT22;54886;47.036;15.466;2023-03-21T07:53:45;9.15;70.64
68098;DHT22;54886;47.036;15.466;2023-03-21T07:56:12;9.20;70.37
68098;DHT22;54886;47.036;15.466;2023-03-21T07:58:38;9.35;69.67
68098;DHT22;54886;47.036;15.466;2023-03-21T08:01:03;9.42;69.35
68098;DHT22;54886;47.036;15.466;2023-03-21T08:03:29;9.49;70.10
68098;DHT22;54886;47.036;15.466;2023-03-21T08:05:58;9.53;69.10
68098;DHT22;54886;47.036;15.466;2023-03-21T08:08:25;9.59;68.65
68098;DHT22;54886;47.036;15.466;2023-03-21T08:10:51;9.70;69.66
68098;DHT22;54886;47.036;15.466;2023-03-21T08:13:16;9.72;69.19
68098;DHT22;54886;47.036;15.466;2023-03-21T08:15:41;9.83;68.76
68098;DHT22;54886;47.036;15.466;2023-03-21T08:18:07;9.98;68.14
68098;DHT22;54886;47.036;15.466;2023-03-21T08:20:33;10.04;67.18
68098;DHT22;54886;47.036;15.466;2023-03-21T08:22:58;10.13;67.27
68098;DHT22;54886;47.036;15.466;2023-03-21T08:25:25;10.20;66.51
68098;DHT22;54886;47.036;15.466;2023-03-21T08:27:50;10.34;65.92
68098;DHT22;54886;47.036;15.466;2023-03-21T08:30:19;10.38;65.74
68098;DHT22;54886;47.036;15.466;2023-03-21T08:32:45;10.41;65.14
68098;DHT22;54886;47.036;15.466;2023-03-21T08:35:12;10.53;64.88
68098;DHT22;54886;47.036;15.466;2023-03-21T08:37:39;10.58;65.13
68098;DHT22;54886;47.036;15.466;2023-03-21T08:40:06;10.65;64.32
68098;DHT22;54886;47.036;15.466;2023-03-21T08:42:35;10.70;63.78
68098;DHT22;54886;47.036;15.466;2023-03-21T08:45:01;10.75;62.32
68098;DHT22;54886;47.036;15.466;2023-03-21T08:47:26;10.83;62.56
68098;DHT22;54886;47.036;15.466;2023-03-21T08:49:52;10.83;63.70
68098;DHT22;54886;47.036;15.466;2023-03-21T08:52:17;10.89;64.39
68098;DHT22;54886;47.036;15.466;2023-03-21T08:54:43;10.93;64.34
68098;DHT22;54886;47.036;15.466;2023-03-21T08:57:09;11.04;62.60
68098;DHT22;54886;47.036;15.466;2023-03-21T08:59:35;11.11;62.13
68098;DHT22;54886;47.036;15.466;2023-03-21T09:02:01;11.28;64.04
68098;DHT22;54886;47.036;15.466;2023-03-21T09:04:26;11.46;62.44
68098;DHT22;54886;47.036;15.466;2023-03-21T09:06:51;11.49;63.49
68098;DHT22;54886;47.036;15.466;2023-03-21T09:09:20;11.66;61.40
68098;DHT22;54886;47.036;15.466;2023-03-21T09:11:45;11.86;60.07
68098;DHT22;54886;47.036;15.466;2023-03-21T09:14:11;12.03;60.96
68098;DHT22;54886;47.036;15.466;2023-03-21T09:16:36;12.13;58.85
68098;DHT22;54886;47.036;15.466;2023-03-21T09:19:01;12.21;60.65
68098;DHT22;54886;47.036;15.466;2023-03-21T09:21:29;12.41;58.57
68098;DHT22;54886;47.036;15.466;2023-03-21T09:23:55;12.41;58.15
68098;DHT22;54886;47.036;15.466;2023-03-21T09:26:23;12.51;57.40
68098;DHT22;54886;47.036;15.466;2023-03-21T09:28:49;12.53;56.01
68098;DHT22;54886;47.036;15.466;2023-03-21T09:31:15;12.60;55.58
68098;DHT22;54886;47.036;15.466;2023-03-21T09:33:50;12.65;54.32
68098;DHT22;54886;47.036;15.466;2023-03-21T09:36:17;12.68;54.05
68098;DHT22;54886;47.036;15.466;2023-03-21T09:38:47;12.85;53.42
68098;DHT22;54886;47.036;15.466;2023-03-21T09:46:42;13.15;55.09
68098;DHT22;54886;47.036;15.466;2023-03-21T09:49:10;13.20;54.74
68098;DHT22;54886;47.036;15.466;2023-03-21T09:51:43;13.17;54.85
68098;DHT22;54886;47.036;15.466;2023-03-21T09:54:20;13.21;55.16
68098;DHT22;54886;47.036;15.466;2023-03-21T09:56:48;13.24;54.80
68098;DHT22;54886;47.036;15.466;2023-03-21T09:59:22;13.30;52.97
68098;DHT22;54886;47.036;15.466;2023-03-21T10:01:51;13.40;52.84
68098;DHT22;54886;47.036;15.466;2023-03-21T10:04:19;13.38;53.16
68098;DHT22;54886;47.036;15.466;2023-03-21T10:06:52;13.41;52.63
68098;DHT22;54886;47.036;15.466;2023-03-21T10:09:20;13.42;51.86
68098;DHT22;54886;47.036;15.466;2023-03-21T10:11:52;13.37;51.66
68098;DHT22;54886;47.036;15.466;2023-03-21T10:14:24;13.40;51.20
68098;DHT22;54886;47.036;15.466;2023-03-21T10:16:56;13.52;49.92
68098;DHT22;54886;47.036;15.466;2023-03-21T10:19:23;13.52;48.46
68098;DHT22;54886;47.036;15.466;2023-03-21T10:21:50;13.54;48.47
68098;DHT22;54886;47.036;15.466;2023-03-21T10:24:21;13.55;49.33
68098;DHT22;54886;47.036;15.466;2023-03-21T10:26:48;13.52;50.53
68098;DHT22;54886;47.036;15.466;2023-03-21T10:29:15;13.54;51.28
68098;DHT22;54886;47.036;15.466;2023-03-21T10:31:43;13.57;49.18
68098;DHT22;54886;47.036;15.466;2023-03-21T10:36:41;13.69;49.82
68098;DHT22;54886;47.036;15.466;2023-03-21T10:41:42;13.86;49.10
68098;DHT22;54886;47.036;15.466;2023-03-21T10:44:13;14.06;48.91
68098;DHT22;54886;47.036;15.466;2023-03-21T10:46:51;14.20;45.86
68098;DHT22;54886;47.036;15.466;2023-03-21T10:49:17;14.21;45.35
68098;DHT22;54886;47.036;15.466;2023-03-21T10:51:44;14.20;46.91
68098;DHT22;54886;47.036;15.466;2023-03-21T10:54:17;14.27;49.67
68098;DHT22;54886;47.036;15.466;2023-03-21T10:56:49;14.24;47.96
68098;DHT22;54886;47.036;15.466;2023-03-21T10:59:19;14.42;47.41
68098;DHT22;54886;47.036;15.466;2023-03-21T11:01:48;14.37;47.76
68098;DHT22;54886;47.036;15.466;2023-03-21T11:04:21;14.35;47.10
68098;DHT22;54886;47.036;15.466;2023-03-21T11:07:16;14.35;47.65
68098;DHT22;54886;47.036;15.466;2023-03-21T11:09:49;14.48;45.11
68098;DHT22;54886;47.036;15.466;2023-03-21T11:12:17;14.51;44.36
68098;DHT22;54886;47.036;15.466;2023-03-21T11:14:48;14.54;45.66
68098;DHT22;54886;47.036;15.466;2023-03-21T11:17:26;14.52;45.20
68098;DHT22;54886;47.036;15.466;2023-03-21T11:20:00;14.55;45.31
68098;DHT22;54886;47.036;15.466;2023-03-21T11:22:39;14.65;46.99
68098;DHT22;54886;47.036;15.466;2023-03-21T11:25:09;14.76;46.17
68098;DHT22;54886;47.036;15.466;2023-03-21T11:27:49;14.82;45.03
68098;DHT22;54886;47.036;15.466;2023-03-21T11:30:26;14.87;45.70
68098;DHT22;54886;47.036;15.466;2023-03-21T11:32:56;14.92;45.53
68098;DHT22;54886;47.036;15.466;2023-03-21T11:35:31;15.04;46.44
68098;DHT22;54886;47.036;15.466;2023-03-21T11:37:56;15.17;45.77
68098;DHT22;54886;47.036;15.466;2023-03-21T11:42:53;15.42;45.37
68098;DHT22;54886;47.036;15.466;2023-03-21T11:45:20;15.70;44.27
68098;DHT22;54886;47.036;15.466;2023-03-21T11:47:46;15.73;44.20
68098;DHT22;54886;47.036;15.466;2023-03-21T11:50:19;15.79;43.93
68098;DHT22;54886;47.036;15.466;2023-03-21T11:52:57;15.87;44.10
68098;DHT22;54886;47.036;15.466;2023-03-21T12:06:50;16.51;43.02
68098;DHT22;54886;47.036;15.466;2023-03-21T12:09:32;16.59;43.54
68098;DHT22;54886;47.036;15.466;2023-03-21T12:14:57;16.51;42.86
68098;DHT22;54886;47.036;15.466;2023-03-21T12:17:39;16.68;42.42
68098;DHT22;54886;47.036;15.466;2023-03-21T12:25:29;16.95;41.36
68098;DHT22;54886;47.036;15.466;2023-03-21T12:31:08;17.06;43.25
68098;DHT22;54886;47.036;15.466;2023-03-21T12:41:43;16.76;40.72
68098;DHT22;54886;47.036;15.466;2023-03-21T12:44:18;16.69;41.80
68098;DHT22;54886;47.036;15.466;2023-03-21T12:49:29;16.54;41.55
68098;DHT22;54886;47.036;15.466;2023-03-21T12:52:00;16.51;43.36
68098;DHT22;54886;47.036;15.466;2023-03-21T12:54:38;16.47;42.93
68098;DHT22;54886;47.036;15.466;2023-03-21T12:59:48;16.54;42.07
68098;DHT22;54886;47.036;15.466;2023-03-21T13:04:48;16.62;40.36
68098;DHT22;54886;47.036;15.466;2023-03-21T13:07:17;16.59;41.52
68098;DHT22;54886;47.036;15.466;2023-03-21T13:09:44;16.65;41.87
68098;DHT22;54886;47.036;15.466;2023-03-21T13:12:36;16.64;41.73
68098;DHT22;54886;47.036;15.466;2023-03-21T13:18:12;16.67;43.53
68098;DHT22;54886;47.036;15.466;2023-03-21T13:20:47;16.67;43.46
68098;DHT22;54886;47.036;15.466;2023-03-21T13:23:13;16.71;42.05
68098;DHT22;54886;47.036;15.466;2023-03-21T13:25:49;16.67;44.44
68098;DHT22;54886;47.036;15.466;2023-03-21T13:28:20;16.67;43.33
68098;DHT22;54886;47.036;15.466;2023-03-21T13:30:47;16.64;43.53
68098;DHT22;54886;47.036;15.466;2023-03-21T13:33:19;16.61;43.94
68098;DHT22;54886;47.036;15.466;2023-03-21T13:35:58;16.61;44.29
68098;DHT22;54886;47.036;15.466;2023-03-21T13:38:31;16.62;43.26
68098;DHT22;54886;47.036;15.466;2023-03-21T13:41:16;16.68;43.68
68098;DHT22;54886;47.036;15.466;2023-03-21T13:56:26;16.93;41.51
68098;DHT22;54886;47.036;15.466;2023-03-21T13:58:56;16.92;41.84
68098;DHT22;54886;47.036;15.466;2023-03-21T14:01:39;16.92;40.52
68098;DHT22;54886;47.036;15.466;2023-03-21T14:04:19;17.00;42.43
68098;DHT22;54886;47.036;15.466;2023-03-21T14:07:16;16.99;42.11
68098;DHT22;54886;47.036;15.466;2023-03-21T14:09:48;16.90;42.04
68098;DHT22;54886;47.036;15.466;2023-03-21T14:12:17;16.85;42.18
68098;DHT22;54886;47.036;15.466;2023-03-21T14:14:50;16.82;42.77
68098;DHT22;54886;47.036;15.466;2023-03-21T14:17:31;16.78;43.56
68098;DHT22;54886;47.036;15.466;2023-03-21T14:22:39;16.76;43.33
68098;DHT22;54886;47.036;15.466;2023-03-21T14:25:10;16.78;43.66
68098;DHT22;54886;47.036;15.466;2023-03-21T14:27:37;16.76;43.83
68098;DHT22;54886;47.036;15.466;2023-03-21T14:30:09;16.83;43.89
68098;DHT22;54886;47.036;15.466;2023-03-21T14:32:36;16.85;44.42
68098;DHT22;54886;47.036;15.466;2023-03-21T14:35:01;16.89;43.38
68098;DHT22;54886;47.036;15.466;2023-03-21T14:37:38;16.95;43.86
68098;DHT22;54886;47.036;15.466;2023-03-21T14:40:07;16.99;44.08
68098;DHT22;54886;47.036;15.466;2023-03-21T14:42:45;17.00;41.89
68098;DHT22;54886;47.036;15.466;2023-03-21T14:45:26;17.02;43.54
68098;DHT22;54886;47.036;15.466;2023-03-21T14:48:14;17.00;43.29
68098;DHT22;54886;47.036;15.466;2023-03-21T14:50:48;17.02;42.92
68098;DHT22;54886;47.036;15.466;2023-03-21T14:53:19;16.99;42.80
68098;DHT22;54886;47.036;15.466;2023-03-21T14:55:58;17.03;42.86
68098;DHT22;54886;47.036;15.466;2023-03-21T14:58:25;17.00;44.45
68098;DHT22;54886;47.036;15.466;2023-03-21T15:00:51;17.02;43.78
68098;DHT22;54886;47.036;15.466;2023-03-21T15:03:21;17.03;43.13
68098;DHT22;54886;47.036;15.466;2023-03-21T15:05:47;17.02;42.88
68098;DHT22;54886;47.036;15.466;2023-03-21T15:08:15;17.02;43.58
68098;DHT22;54886;47.036;15.466;2023-03-21T15:10:41;17.00;42.71
68098;DHT22;54886;47.036;15.466;2023-03-21T15:13:19;16.97;44.21
68098;DHT22;54886;47.036;15.466;2023-03-21T15:15:46;16.96;42.06
68098;DHT22;54886;47.036;15.466;2023-03-21T15:18:19;16.97;42.00
68098;DHT22;54886;47.036;15.466;2023-03-21T15:20:47;16.97;43.07
68098;DHT22;54886;47.036;15.466;2023-03-21T15:23:28;16.96;43.92
68098;DHT22;54886;47.036;15.466;2023-03-21T15:25:55;16.97;42.08
68098;DHT22;54886;47.036;15.466;2023-03-21T15:28:20;16.96;42.88
68098;DHT22;54886;47.036;15.466;2023-03-21T15:30:48;16.96;42.93
68098;DHT22;54886;47.036;15.466;2023-03-21T15:33:15;16.95;42.60
68098;DHT22;54886;47.036;15.466;2023-03-21T15:35:43;16.93;41.79
68098;DHT22;54886;47.036;15.466;2023-03-21T15:46:41;16.92;42.73
68098;DHT22;54886;47.036;15.466;2023-03-21T15:49:30;16.90;43.32
68098;DHT22;54886;47.036;15.466;2023-03-21T15:52:05;16.90;42.75
68098;DHT22;54886;47.036;15.466;2023-03-21T15:54:46;16.92;43.56
68098;DHT22;54886;47.036;15.466;2023-03-21T15:57:28;16.89;42.50
68098;DHT22;54886;47.036;15.466;2023-03-21T16:02:42;16.86;43.16
68098;DHT22;54886;47.036;15.466;2023-03-21T16:07:49;16.86;40.82
68098;DHT22;54886;47.036;15.466;2023-03-21T16:10:28;16.87;41.68
68098;DHT22;54886;47.036;15.466;2023-03-21T16:12:53;16.85;41.64
68098;DHT22;54886;47.036;15.466;2023-03-21T16:15:19;16.83;41.57
68098;DHT22;54886;47.036;15.466;2023-03-21T16:17:53;16.82;42.38
68098;DHT22;54886;47.036;15.466;2023-03-21T16:20:22;16.83;42.06
68098;DHT22;54886;47.036;15.466;2023-03-21T16:22:48;16.83;41.98
68098;DHT22;54886;47.036;15.466;2023-03-21T16:25:14;16.82;42.45
68098;DHT22;54886;47.036;15.466;2023-03-21T16:27:40;16.82;42.60
68098;DHT22;54886;47.036;15.466;2023-03-21T16:30:06;16.85;42.47
68098;DHT22;54886;47.036;15.466;2023-03-21T16:32:32;16.83;42.18
68098;DHT22;54886;47.036;15.466;2023-03-21T16:34:58;16.82;42.60
68098;DHT22;54886;47.036;15.466;2023-03-21T16:37:24;16.82;42.19
68098;DHT22;54886;47.036;15.466;2023-03-21T16:39:50;16.80;41.75
68098;DHT22;54886;47.036;15.466;2023-03-21T16:42:15;16.75;42.62
68098;DHT22;54886;47.036;15.466;2023-03-21T16:44:40;16.73;43.12
68098;DHT22;54886;47.036;15.466;2023-03-21T16:47:17;16.73;42.62
68098;DHT22;54886;47.036;15.466;2023-03-21T16:49:43;16.71;42.55
68098;DHT22;54886;47.036;15.466;2023-03-21T16:52:10;16.69;41.94
68098;DHT22;54886;47.036;15.466;2023-03-21T16:54:37;16.67;41.77
68098;DHT22;54886;47.036;15.466;2023-03-21T16:57:04;16.61;41.62
68098;DHT22;54886;47.036;15.466;2023-03-21T16:59:32;16.59;42.90
68098;DHT22;54886;47.036;15.466;2023-03-21T17:01:57;16.58;42.97
68098;DHT22;54886;47.036;15.466;2023-03-21T17:04:23;16.55;42.50
68098;DHT22;54886;47.036;15.466;2023-03-21T17:06:51;16.48;42.80
68098;DHT22;54886;47.036;15.466;2023-03-21T17:09:19;16.45;42.65
68098;DHT22;54886;47.036;15.466;2023-03-21T17:11:46;16.41;42.65
68098;DHT22;54886;47.036;15.466;2023-03-21T17:14:12;16.37;43.76
68098;DHT22;54886;47.036;15.466;2023-03-21T17:16:38;16.28;42.72
68098;DHT22;54886;47.036;15.466;2023-03-21T17:19:18;16.25;44.06
68098;DHT22;54886;47.036;15.466;2023-03-21T17:21:43;16.24;43.16
68098;DHT22;54886;47.036;15.466;2023-03-21T17:24:10;16.20;44.18
68098;DHT22;54886;47.036;15.466;2023-03-21T17:26:35;16.12;44.04